Time;durP1;ratioP1;P1;durP2;ratioP2;P2;SDS_P1;SDS_P2;PMS_P1;PMS_P2;Temp;Humidity;BMP_temperature;BMP_pressure;BME280_temperature;BME280_humidity;BME280_pressure;Samples;Min_cycle;Max_cycle;Signal;HPM_P1;HPM_P2
2023/05/26 00:01:14;;;;;;;8.48;5.47;;;;;;;16.39;52.40;97967.72;4890568;28;20271;-75
2023/05/26 00:03:44;;;;;;;7.57;4.95;;;;;;;16.17;52.98;97962.69;4899471;28;20533;-77
2023/05/26 00:06:11;;;;;;;10.77;5.70;;;;;;;16.06;52.95;97961.91;4925749;28;20106;-78
2023/05/26 00:08:37;;;;;;;10.65;5.80;;;;;;;15.89;53.36;97968.16;4910226;28;20201;-77
2023/05/26 00:11:02;;;;;;;7.63;5.00;;;;;;;15.85;53.58;97964.50;4906963;28;20248;-75
2023/05/26 00:13:28;;;;;;;9.98;5.70;;;;;;;15.89;53.31;97973.41;4908505;28;20225;-76
2023/05/26 00:15:53;;;;;;;7.95;5.53;;;;;;;15.77;54.01;97969.47;4918539;28;20287;-77
2023/05/26 00:18:19;;;;;;;8.73;5.38;;;;;;;15.64;54.35;97962.81;4909640;28;20464;-77
2023/05/26 00:20:45;;;;;;;9.52;5.22;;;;;;;15.86;53.60;97971.31;4921834;28;20208;-78
2023/05/26 00:23:10;;;;;;;8.23;6.07;;;;;;;15.62;54.12;97972.78;4908352;28;20239;-78
2023/05/26 00:25:36;;;;;;;8.25;5.82;;;;;;;15.73;53.83;97969.16;4905801;28;20314;-76
2023/05/26 00:28:01;;;;;;;11.30;6.00;;;;;;;15.63;53.89;97969.13;4902298;28;20283;-77
2023/05/26 00:30:28;;;;;;;8.68;5.95;;;;;;;15.78;53.64;97969.19;4905389;28;20174;-77
2023/05/26 00:32:53;;;;;;;7.50;5.65;;;;;;;15.76;53.73;97981.78;4907286;28;20551;-78
2023/05/26 00:35:19;;;;;;;9.65;5.38;;;;;;;15.78;53.68;97971.81;4927832;28;20212;-77
2023/05/26 00:37:44;;;;;;;10.63;6.00;;;;;;;15.54;53.96;97959.09;4907403;28;20205;-77
2023/05/26 00:40:11;;;;;;;10.90;5.72;;;;;;;15.54;53.81;97972.22;4908233;28;20171;-77
2023/05/26 00:42:37;;;;;;;9.82;5.88;;;;;;;15.38;55.10;97975.81;4918264;28;20299;-76
2023/05/26 00:45:02;;;;;;;7.88;5.55;;;;;;;15.23;54.91;97968.66;4925538;28;20173;-76
2023/05/26 00:47:28;;;;;;;11.02;6.78;;;;;;;15.41;54.79;97971.91;4923861;28;20099;-77
2023/05/26 00:49:53;;;;;;;13.43;6.25;;;;;;;15.16;55.45;97973.34;4912299;28;20204;-77
2023/05/26 00:52:19;;;;;;;9.25;6.50;;;;;;;15.42;54.78;97969.03;4926294;28;20324;-78
2023/05/26 00:54:45;;;;;;;9.13;5.72;;;;;;;15.57;54.37;97959.63;4901247;28;20195;-77
2023/05/26 00:57:10;;;;;;;7.90;5.72;;;;;;;15.59;54.15;97968.03;4907535;28;20258;-78
2023/05/26 00:59:36;;;;;;;14.45;5.68;;;;;;;15.46;54.60;97966.69;4912122;28;20644;-77
2023/05/26 01:02:02;;;;;;;10.27;5.68;;;;;;;15.50;54.51;97960.66;4948945;23;20069;-78
2023/05/26 01:04:29;;;;;;;8.65;5.80;;;;;;;15.40;54.60;97954.56;4875400;28;20351;-78
2023/05/26 01:06:55;;;;;;;9.27;5.78;;;;;;;15.24;55.42;97956.34;4860245;29;20830;-79
2023/05/26 01:09:21;;;;;;;8.93;6.00;;;;;;;15.39;55.00;97951.19;4853564;28;20094;-79
2023/05/26 01:12:09;;;;;;;10.10;6.22;;;;;;;15.48;54.87;97954.88;4885786;28;20030;-77
2023/05/26 01:14:40;;;;;;;7.88;5.57;;;;;;;15.47;54.82;97952.50;4874620;28;20038;-79
2023/05/26 01:17:11;;;;;;;9.90;5.93;;;;;;;15.29;54.99;97957.16;4884696;28;20081;-78
2023/05/26 01:19:58;;;;;;;9.90;6.18;;;;;;;15.47;54.76;97957.75;4888492;28;20522;-79
2023/05/26 01:22:48;;;;;;;10.27;5.60;;;;;;;15.51;54.73;97956.22;4886507;28;20023;-79
2023/05/26 01:25:57;;;;;;;8.85;5.85;;;;;;;15.40;54.81;97951.94;4870824;28;20043;-79
2023/05/26 01:28:26;;;;;;;8.43;5.60;;;;;;;15.36;54.56;97949.06;4850872;29;20038;-79
2023/05/26 01:30:53;;;;;;;8.00;5.80;;;;;;;15.20;55.47;97952.63;4851139;29;20690;-78
2023/05/26 01:33:18;;;;;;;11.30;5.93;;;;;;;15.00;55.92;97945.47;4850370;29;20042;-78
2023/05/26 01:35:44;;;;;;;7.85;5.93;;;;;;;15.09;55.71;97951.81;4814779;29;20647;-78
2023/05/26 01:38:11;;;;;;;12.57;7.00;;;;;;;15.08;55.73;97947.59;4847931;29;20175;-78
2023/05/26 01:40:38;;;;;;;9.65;6.90;;;;;;;14.89;56.16;97940.16;4831695;29;20046;-78
2023/05/26 01:43:08;;;;;;;12.13;6.18;;;;;;;15.04;56.25;97947.31;4814985;29;20095;-78
2023/05/26 01:45:40;;;;;;;11.15;6.55;;;;;;;15.09;55.91;97949.97;4835079;29;20046;-78
2023/05/26 01:48:06;;;;;;;8.75;5.80;;;;;;;15.06;55.67;97952.31;4815971;29;20057;-79
2023/05/26 01:50:40;;;;;;;7.65;6.22;;;;;;;15.01;56.00;97941.78;4846003;29;20210;-78
2023/05/26 01:53:07;;;;;;;11.40;7.00;;;;;;;14.92;56.13;97946.72;4848273;29;20126;-78
2023/05/26 01:55:35;;;;;;;10.40;6.15;;;;;;;14.84;56.67;97952.44;4851190;29;20966;-78
2023/05/26 01:58:01;;;;;;;11.88;6.40;;;;;;;14.75;56.83;97944.25;4850744;29;20035;-78
2023/05/26 02:00:27;;;;;;;10.00;6.45;;;;;;;14.78;56.73;97939.28;4853259;29;20043;-79
2023/05/26 02:02:52;;;;;;;10.02;6.03;;;;;;;14.60;57.09;97931.84;4866764;28;20105;-77
2023/05/26 02:05:18;;;;;;;10.05;6.28;;;;;;;14.57;57.56;97943.59;4887802;28;20625;-79
2023/05/26 02:07:45;;;;;;;11.80;6.50;;;;;;;14.65;57.35;97945.00;4871904;28;20619;-78
2023/05/26 02:10:11;;;;;;;10.35;6.07;;;;;;;14.67;57.00;97944.72;4839638;28;20032;-79
2023/05/26 02:12:37;;;;;;;10.32;6.65;;;;;;;14.67;57.21;97948.16;4867485;28;20905;-79
2023/05/26 02:15:03;;;;;;;11.07;6.60;;;;;;;14.49;57.58;97943.25;4854712;28;20027;-78
2023/05/26 02:17:28;;;;;;;10.35;6.60;;;;;;;14.48;57.63;97945.09;4870383;28;20031;-78
2023/05/26 02:19:54;;;;;;;9.68;5.93;;;;;;;14.54;57.60;97945.91;4856566;28;20029;-79
2023/05/26 02:22:19;;;;;;;9.27;7.00;;;;;;;14.62;57.17;97948.09;4882981;28;20027;-79
2023/05/26 02:24:44;;;;;;;12.13;6.72;;;;;;;14.47;57.38;97943.50;4868549;28;20031;-78
2023/05/26 02:27:10;;;;;;;10.93;6.70;;;;;;;14.50;57.32;97929.91;4872176;28;20342;-79
2023/05/26 02:29:35;;;;;;;10.32;6.70;;;;;;;14.45;57.52;97939.56;4862746;28;20058;-78
2023/05/26 02:32:01;;;;;;;9.70;6.38;;;;;;;14.48;57.44;97933.81;4886738;28;20780;-79
2023/05/26 02:34:26;;;;;;;10.25;6.22;;;;;;;14.28;58.17;97937.84;4854359;29;20273;-78
2023/05/26 02:36:55;;;;;;;11.00;6.93;;;;;;;14.30;58.41;97946.25;4865601;28;20063;-77
2023/05/26 02:39:23;;;;;;;8.23;6.35;;;;;;;14.24;58.43;97942.00;4884378;28;20214;-79
2023/05/26 02:41:48;;;;;;;10.02;6.60;;;;;;;14.29;58.14;97938.63;4847394;28;20027;-77
2023/05/26 02:44:14;;;;;;;10.98;7.10;;;;;;;14.28;58.48;97944.94;4855287;28;20035;-78
2023/05/26 02:46:40;;;;;;;13.65;7.15;;;;;;;14.10;58.55;97938.97;4876487;28;20030;-78
2023/05/26 02:49:06;;;;;;;12.05;6.85;;;;;;;14.21;58.47;97945.13;4856325;28;20220;-79
2023/05/26 02:51:33;;;;;;;9.70;7.10;;;;;;;14.12;58.59;97936.13;4874761;28;20089;-78
2023/05/26 02:53:58;;;;;;;14.15;8.10;;;;;;;14.13;58.86;97935.09;4861285;28;20121;-79
2023/05/26 02:56:24;;;;;;;12.15;7.00;;;;;;;14.10;59.00;97935.59;4863900;28;20058;-79
2023/05/26 02:58:49;;;;;;;11.13;6.90;;;;;;;14.03;58.99;97938.41;4845608;29;20750;-79
2023/05/26 03:01:16;;;;;;;10.88;7.35;;;;;;;14.15;58.99;97939.03;4868814;28;20476;-78
2023/05/26 03:03:41;;;;;;;9.68;6.13;;;;;;;14.09;59.18;97932.19;4859709;28;20039;-79
2023/05/26 03:06:07;;;;;;;13.13;7.35;;;;;;;14.05;59.24;97934.50;4858321;28;20058;-77
2023/05/26 03:08:33;;;;;;;14.55;7.22;;;;;;;14.03;59.08;97941.84;4873343;28;20034;-79
2023/05/26 03:10:58;;;;;;;13.27;6.82;;;;;;;13.97;59.29;97931.56;4855418;29;20027;-77
2023/05/26 03:13:24;;;;;;;10.02;7.00;;;;;;;13.93;59.49;97930.44;4860746;28;20050;-79
2023/05/26 03:15:49;;;;;;;13.63;7.32;;;;;;;13.89;59.20;97918.91;4875490;28;20823;-79
2023/05/26 03:18:16;;;;;;;11.68;7.30;;;;;;;13.93;59.43;97919.97;4873395;28;20034;-78
2023/05/26 03:20:43;;;;;;;10.18;7.60;;;;;;;13.96;58.84;97928.13;4869882;28;20710;-77
2023/05/26 03:23:08;;;;;;;10.10;6.80;;;;;;;13.82;59.92;97926.94;4893910;28;20023;-78
2023/05/26 03:25:34;;;;;;;11.38;7.25;;;;;;;13.80;60.03;97923.78;4874895;28;20046;-78
2023/05/26 03:27:59;;;;;;;15.45;8.25;;;;;;;13.67;60.28;97927.56;4883726;28;20026;-78
2023/05/26 03:30:25;;;;;;;12.43;7.80;;;;;;;13.70;60.43;97924.47;4858765;28;20050;-78
2023/05/26 03:32:50;;;;;;;11.85;7.00;;;;;;;13.75;60.04;97926.34;4883754;28;20581;-78
2023/05/26 03:35:16;;;;;;;10.38;7.63;;;;;;;13.80;59.63;97923.78;4869549;28;20951;-78
2023/05/26 03:37:41;;;;;;;10.38;7.03;;;;;;;13.80;59.31;97913.31;4863269;28;20576;-78
2023/05/26 03:40:08;;;;;;;10.27;7.28;;;;;;;13.88;59.69;97923.34;4865813;28;20739;-80
2023/05/26 03:42:34;;;;;;;16.17;7.93;;;;;;;13.71;60.07;97918.22;4862954;28;20624;-78
2023/05/26 03:44:59;;;;;;;11.73;7.32;;;;;;;13.65;60.48;97922.56;4861056;28;20023;-78
2023/05/26 03:47:25;;;;;;;10.68;7.70;;;;;;;13.69;60.25;97922.88;4870644;28;20133;-79
2023/05/26 03:49:50;;;;;;;11.70;7.13;;;;;;;13.67;60.14;97930.19;4878733;28;20046;-78
2023/05/26 03:52:16;;;;;;;14.90;8.73;;;;;;;13.59;61.10;97928.81;4849197;28;20545;-79
2023/05/26 03:54:41;;;;;;;9.70;6.50;;;;;;;13.68;60.41;97929.94;4862342;28;20064;-79
2023/05/26 03:57:07;;;;;;;11.60;7.30;;;;;;;13.80;59.88;97929.81;4862009;28;20600;-78
2023/05/26 03:59:32;;;;;;;15.50;7.55;;;;;;;13.78;59.95;97924.03;4859176;28;20642;-79
2023/05/26 04:01:58;;;;;;;15.43;8.13;;;;;;;13.71;60.32;97935.72;4861698;28;20081;-78
2023/05/26 04:04:24;;;;;;;14.40;8.20;;;;;;;13.68;60.31;97940.41;4865855;28;20121;-79
2023/05/26 04:06:50;;;;;;;11.50;7.05;;;;;;;13.80;59.74;97934.25;4883862;28;20061;-79
2023/05/26 04:09:15;;;;;;;12.68;6.93;;;;;;;13.78;59.53;97946.81;4856346;28;20726;-78
2023/05/26 04:11:41;;;;;;;10.60;7.68;;;;;;;13.89;59.62;97948.47;4863781;28;20023;-78
2023/05/26 04:14:06;;;;;;;14.32;8.85;;;;;;;13.86;59.89;97943.72;4873068;28;20030;-78
2023/05/26 04:16:33;;;;;;;14.55;7.60;;;;;;;13.87;59.94;97940.09;4884125;28;20038;-78
2023/05/26 04:18:58;;;;;;;11.60;7.32;;;;;;;13.90;59.68;97949.25;4840116;28;20035;-79
2023/05/26 04:21:23;;;;;;;11.48;7.45;;;;;;;13.86;60.02;97938.50;4874606;28;20265;-78
2023/05/26 04:23:51;;;;;;;11.52;6.53;;;;;;;13.86;59.77;97933.25;4868672;28;20514;-78
2023/05/26 04:26:18;;;;;;;13.23;6.80;;;;;;;14.05;59.17;97937.13;4856557;28;20727;-79
2023/05/26 04:28:44;;;;;;;15.25;8.60;;;;;;;14.00;59.24;97949.38;4874400;28;20027;-78
2023/05/26 04:31:10;;;;;;;10.80;7.43;;;;;;;14.02;59.16;97948.09;4855426;28;20028;-78
2023/05/26 04:33:40;;;;;;;9.93;6.85;;;;;;;14.18;58.77;97950.84;4851767;28;20050;-79
2023/05/26 04:36:09;;;;;;;14.98;8.15;;;;;;;14.31;58.54;97947.03;4836335;28;20126;-79
2023/05/26 04:38:36;;;;;;;10.88;6.93;;;;;;;14.33;58.54;97956.22;4870588;28;20135;-79
2023/05/26 04:41:06;;;;;;;12.27;7.35;;;;;;;14.37;58.35;97943.41;4855790;28;20034;-79
2023/05/26 04:43:34;;;;;;;12.52;7.78;;;;;;;14.16;58.64;97951.09;4868382;28;20086;-78
2023/05/26 04:46:01;;;;;;;13.85;7.22;;;;;;;14.20;58.62;97952.19;4871778;28;20154;-77
2023/05/26 04:48:27;;;;;;;11.93;6.68;;;;;;;13.98;59.19;97947.03;4856851;28;20031;-79
2023/05/26 04:50:53;;;;;;;11.07;6.75;;;;;;;14.18;58.60;97946.41;4869393;28;20122;-78
2023/05/26 04:53:19;;;;;;;12.90;8.10;;;;;;;14.32;58.56;97949.41;4846138;28;20833;-77
2023/05/26 04:55:44;;;;;;;10.88;7.70;;;;;;;14.33;58.82;97943.13;4841703;28;20041;-78
2023/05/26 04:58:10;;;;;;;13.55;7.63;;;;;;;14.23;58.68;97945.66;4885498;28;20110;-78
2023/05/26 05:00:36;;;;;;;12.70;7.32;;;;;;;14.38;58.46;97951.03;4843710;28;20027;-79
2023/05/26 05:03:03;;;;;;;10.13;7.10;;;;;;;14.36;58.28;97953.13;4840807;28;20023;-78
2023/05/26 05:05:31;;;;;;;11.88;6.43;;;;;;;14.54;58.23;97953.78;4850107;29;20039;-78
2023/05/26 05:07:57;;;;;;;10.48;6.70;;;;;;;14.43;58.10;97948.44;4871730;28;20054;-78
2023/05/26 05:10:22;;;;;;;9.10;7.10;;;;;;;14.47;57.43;97955.81;4880800;28;20985;-78
2023/05/26 05:12:48;;;;;;;10.77;7.10;;;;;;;14.65;57.58;97960.72;4852269;28;20878;-77
2023/05/26 05:15:14;;;;;;;10.07;6.95;;;;;;;14.58;57.48;97960.09;4852034;28;20037;-78
2023/05/26 05:17:40;;;;;;;10.18;6.75;;;;;;;14.36;58.13;97955.75;4852070;28;20138;-78
2023/05/26 05:20:07;;;;;;;10.55;6.85;;;;;;;14.47;57.78;97961.84;4870448;28;20534;-80
2023/05/26 05:22:32;;;;;;;13.27;7.72;;;;;;;14.52;57.73;97961.88;4857506;29;20031;-78
2023/05/26 05:24:58;;;;;;;11.95;7.55;;;;;;;14.71;57.11;97964.16;4866816;28;20035;-78
2023/05/26 05:27:23;;;;;;;10.07;7.10;;;;;;;14.79;57.51;97959.22;4842426;28;20123;-78
2023/05/26 05:29:49;;;;;;;9.77;6.88;;;;;;;15.16;56.73;97963.66;4888959;28;20681;-78
2023/05/26 05:32:14;;;;;;;9.85;6.80;;;;;;;14.80;57.56;97967.88;4855018;28;20085;-77
2023/05/26 05:34:40;;;;;;;9.02;7.00;;;;;;;15.06;56.94;97963.59;4855894;28;20018;-77
2023/05/26 05:37:05;;;;;;;9.45;7.13;;;;;;;15.07;56.70;97973.03;4856988;28;20113;-78
2023/05/26 05:39:30;;;;;;;12.25;6.75;;;;;;;15.09;56.89;97968.31;4850164;29;20051;-78
2023/05/26 05:41:56;;;;;;;11.20;7.32;;;;;;;15.25;56.39;97969.22;4869548;28;20082;-77
2023/05/26 05:44:22;;;;;;;11.40;7.20;;;;;;;15.45;56.66;97973.75;4870729;28;20034;-79
2023/05/26 05:46:47;;;;;;;10.55;6.68;;;;;;;15.38;55.90;97967.94;4885611;28;20118;-78
2023/05/26 05:49:12;;;;;;;12.13;7.28;;;;;;;15.34;56.30;97972.91;4885320;28;20590;-79
2023/05/26 05:51:38;;;;;;;14.40;6.90;;;;;;;15.36;55.87;97973.44;4861765;28;20022;-77
2023/05/26 05:54:03;;;;;;;13.48;8.02;;;;;;;15.35;56.15;97977.13;4856377;28;20033;-78
2023/05/26 05:56:29;;;;;;;13.13;6.90;;;;;;;15.42;56.50;97971.66;4882384;28;20030;-79
2023/05/26 05:58:54;;;;;;;12.27;6.65;;;;;;;15.45;55.88;97972.97;4850621;28;20283;-78
2023/05/26 06:01:20;;;;;;;11.70;7.03;;;;;;;15.42;55.86;97974.28;4868336;28;20047;-78
2023/05/26 06:03:45;;;;;;;11.35;6.65;;;;;;;15.86;55.38;97973.16;4861593;28;20049;-77
2023/05/26 06:06:11;;;;;;;11.18;6.90;;;;;;;15.91;55.32;97976.56;4865827;28;20022;-77
2023/05/26 06:08:36;;;;;;;11.00;7.10;;;;;;;16.10;54.70;97981.34;4837790;28;22462;-77
2023/05/26 06:11:03;;;;;;;10.60;7.03;;;;;;;16.43;54.06;97989.78;4854453;28;20062;-80
2023/05/26 06:13:28;;;;;;;11.43;6.72;;;;;;;16.56;53.84;97994.53;4860817;28;20226;-79
2023/05/26 06:15:54;;;;;;;10.20;6.07;;;;;;;16.84;53.99;97982.72;4874621;28;20169;-78
2023/05/26 06:18:19;;;;;;;11.70;6.10;;;;;;;17.26;53.17;97993.19;4855358;28;20634;-77
2023/05/26 06:20:44;;;;;;;10.40;5.90;;;;;;;17.03;51.85;98001.38;4864662;28;20042;-78
2023/05/26 06:23:10;;;;;;;10.95;6.78;;;;;;;16.87;52.28;97996.41;4856821;28;20031;-79
2023/05/26 06:25:35;;;;;;;8.48;6.15;;;;;;;17.01;53.07;98008.72;4869971;28;20042;-79
2023/05/26 06:28:01;;;;;;;11.05;6.57;;;;;;;16.94;52.29;97997.69;4875508;28;20033;-78
2023/05/26 06:30:26;;;;;;;10.80;6.13;;;;;;;17.06;52.34;98002.69;4876389;28;20035;-77
2023/05/26 06:32:52;;;;;;;10.15;6.57;;;;;;;17.61;51.74;98008.06;4854004;28;20110;-77
2023/05/26 06:35:18;;;;;;;8.85;5.90;;;;;;;17.55;50.97;97998.63;4850078;28;20030;-77
2023/05/26 06:37:43;;;;;;;9.98;5.65;;;;;;;17.79;50.55;97986.38;4828403;28;20759;-78
2023/05/26 06:40:09;;;;;;;7.72;5.88;;;;;;;17.91;50.48;97993.22;4849875;28;20122;-80
2023/05/26 06:42:35;;;;;;;9.45;5.93;;;;;;;18.19;49.74;97998.84;4860973;28;20031;-78
2023/05/26 06:45:00;;;;;;;9.65;5.85;;;;;;;18.33;49.56;97992.72;4865757;28;20070;-79
2023/05/26 06:47:26;;;;;;;10.02;6.63;;;;;;;18.47;49.12;97992.88;4870290;28;20113;-79
2023/05/26 06:49:51;;;;;;;9.93;6.45;;;;;;;18.49;48.63;97998.66;4878217;28;20035;-78
2023/05/26 06:52:17;;;;;;;10.80;5.93;;;;;;;18.55;49.24;97993.34;4873492;28;20031;-79
2023/05/26 06:54:43;;;;;;;8.13;5.50;;;;;;;18.45;48.79;98002.88;4840553;28;20505;-78
2023/05/26 06:57:08;;;;;;;10.32;5.80;;;;;;;18.76;48.54;97993.94;4851589;28;20073;-79
2023/05/26 06:59:33;;;;;;;8.25;5.95;;;;;;;18.93;48.46;98002.25;4863740;28;20034;-78
2023/05/26 07:01:59;;;;;;;7.63;5.50;;;;;;;19.16;47.85;98000.72;4848194;28;20275;-79
2023/05/26 07:04:24;;;;;;;8.45;5.22;;;;;;;19.27;46.85;97991.63;4860562;28;20757;-79
2023/05/26 07:06:50;;;;;;;9.32;6.10;;;;;;;19.26;47.45;98000.63;4905272;28;20204;-78
2023/05/26 07:09:15;;;;;;;8.25;5.60;;;;;;;19.74;46.84;97994.56;4856599;28;20042;-79
2023/05/26 07:11:41;;;;;;;9.00;5.82;;;;;;;19.90;46.37;97997.78;4874309;28;20031;-78
2023/05/26 07:14:06;;;;;;;8.27;5.53;;;;;;;20.25;45.76;97992.28;4864601;28;20411;-77
2023/05/26 07:16:32;;;;;;;8.10;5.53;;;;;;;20.06;45.20;98000.22;4864585;28;20030;-79
2023/05/26 07:18:57;;;;;;;8.25;5.20;;;;;;;20.18;45.34;97998.69;4870509;28;20747;-79
2023/05/26 07:21:25;;;;;;;7.88;4.90;;;;;;;20.56;45.38;98011.09;4866692;28;21037;-78
2023/05/26 07:23:51;;;;;;;10.35;5.60;;;;;;;20.56;45.08;98008.47;4876047;28;20643;-78
2023/05/26 07:26:16;;;;;;;8.80;6.07;;;;;;;20.41;44.91;98001.56;4875692;28;20034;-80
2023/05/26 07:28:42;;;;;;;6.90;5.43;;;;;;;20.28;44.59;98010.22;4861771;28;20034;-78
2023/05/26 07:31:07;;;;;;;7.78;5.35;;;;;;;20.49;44.60;98003.53;4876068;28;20097;-79
2023/05/26 07:33:33;;;;;;;11.55;6.10;;;;;;;20.71;44.75;98002.19;4861487;28;20523;-79
2023/05/26 07:35:58;;;;;;;10.75;5.78;;;;;;;20.98;43.92;98004.09;4854137;29;20089;-78
2023/05/26 07:38:24;;;;;;;8.18;5.72;;;;;;;21.08;43.75;98006.56;4855032;28;20023;-79
2023/05/26 07:40:51;;;;;;;8.80;5.13;;;;;;;21.02;43.23;98001.66;4874681;28;20069;-79
2023/05/26 07:43:16;;;;;;;9.95;6.18;;;;;;;20.74;44.06;98001.59;4881652;28;20516;-80
2023/05/26 07:45:42;;;;;;;9.63;5.35;;;;;;;20.94;43.14;98009.19;4871196;28;20046;-79
2023/05/26 07:48:07;;;;;;;9.15;5.68;;;;;;;20.93;43.27;98007.63;4858748;28;20130;-81
2023/05/26 07:50:32;;;;;;;7.18;4.82;;;;;;;20.85;43.68;98010.94;4860437;28;20118;-79
2023/05/26 07:52:58;;;;;;;7.18;5.78;;;;;;;21.36;43.37;98009.22;4844039;28;20030;-80
2023/05/26 07:55:23;;;;;;;7.45;5.63;;;;;;;21.40;43.12;98002.25;4849791;28;20645;-78
2023/05/26 07:57:49;;;;;;;8.32;5.18;;;;;;;21.29;43.23;98008.84;4842071;29;20031;-78
2023/05/26 08:00:15;;;;;;;7.80;5.68;;;;;;;21.32;42.78;98013.56;4859852;28;20393;-78
2023/05/26 08:02:41;;;;;;;8.85;5.60;;;;;;;21.81;42.38;98009.41;4878302;28;20076;-79
2023/05/26 08:05:07;;;;;;;7.82;5.55;;;;;;;22.02;42.04;98014.28;4875395;28;20116;-79
2023/05/26 08:07:32;;;;;;;8.07;6.18;;;;;;;21.57;43.03;98008.88;4860537;28;20348;-79
2023/05/26 08:09:58;;;;;;;8.90;6.13;;;;;;;21.74;43.13;98013.56;4860993;28;20804;-79
2023/05/26 08:12:23;;;;;;;7.45;5.80;;;;;;;21.95;41.70;98000.66;4858687;28;20581;-78
2023/05/26 08:14:49;;;;;;;12.48;5.78;;;;;;;22.07;42.06;98014.97;4876434;28;20146;-78
2023/05/26 08:17:15;;;;;;;8.40;6.22;;;;;;;22.10;42.54;98012.81;4875321;28;20034;-78
2023/05/26 08:19:41;;;;;;;10.55;6.30;;;;;;;21.83;42.55;98001.97;4856161;28;20905;-79
2023/05/26 08:22:06;;;;;;;9.25;5.75;;;;;;;22.18;41.88;97994.31;4895843;28;20040;-79
2023/05/26 08:24:32;;;;;;;8.10;5.57;;;;;;;22.36;40.85;98008.53;4871930;29;20564;-79
2023/05/26 08:26:57;;;;;;;7.38;6.07;;;;;;;21.75;41.74;98001.91;4873119;28;20495;-79
2023/05/26 08:29:23;;;;;;;10.65;5.80;;;;;;;22.25;42.10;98009.81;4876476;28;20888;-78
2023/05/26 08:31:49;;;;;;;7.20;6.28;;;;;;;22.52;41.95;98001.00;4871476;28;20019;-79
2023/05/26 08:34:16;;;;;;;7.97;6.75;;;;;;;22.58;40.99;98005.09;4876071;28;20094;-79
2023/05/26 08:36:42;;;;;;;8.40;6.00;;;;;;;22.65;40.93;98003.88;4876076;28;20037;-78
2023/05/26 08:39:07;;;;;;;8.60;6.53;;;;;;;22.73;40.21;98011.91;4861110;28;20030;-77
2023/05/26 08:41:43;;;;;;;6.95;5.43;;;;;;;22.63;40.45;98010.25;4860529;28;20034;-79
2023/05/26 08:44:09;;;;;;;7.53;5.40;;;;;;;23.10;40.02;98003.81;4876529;28;20031;-80
2023/05/26 08:46:36;;;;;;;8.68;5.95;;;;;;;23.38;39.34;97996.44;4857128;29;20283;-78
2023/05/26 08:49:02;;;;;;;9.63;6.70;;;;;;;23.21;39.17;98007.78;4888982;28;20031;-80
2023/05/26 08:51:28;;;;;;;7.65;6.28;;;;;;;23.00;39.25;98008.31;4876461;28;20089;-79
2023/05/26 08:53:54;;;;;;;8.18;5.88;;;;;;;23.24;38.99;98009.84;4877279;28;20069;-79
2023/05/26 08:56:21;;;;;;;9.77;6.18;;;;;;;23.31;39.32;98012.84;4850145;28;20975;-79
2023/05/26 08:58:46;;;;;;;8.25;5.47;;;;;;;23.42;38.47;98010.69;4863331;28;20085;-79
2023/05/26 09:01:12;;;;;;;11.25;6.50;;;;;;;23.47;37.89;98012.41;4861758;28;20755;-79
2023/05/26 09:03:38;;;;;;;10.10;6.00;;;;;;;23.55;39.06;98014.31;4849773;29;20073;-78
2023/05/26 09:06:03;;;;;;;8.25;6.05;;;;;;;23.22;38.52;98022.66;4869326;28;20264;-79
2023/05/26 09:08:31;;;;;;;9.77;6.18;;;;;;;23.47;37.82;98013.19;4867421;28;20441;-79
2023/05/26 09:10:57;;;;;;;9.25;5.78;;;;;;;23.68;39.01;98018.75;4834316;29;20038;-79
2023/05/26 09:13:23;;;;;;;7.28;6.18;;;;;;;23.87;36.97;98013.19;4859048;28;20031;-79
2023/05/26 09:15:52;;;;;;;9.50;5.93;;;;;;;23.82;37.69;98017.84;4859225;28;20307;-79
2023/05/26 09:18:20;;;;;;;7.43;5.38;;;;;;;23.73;37.51;98023.13;4875442;28;20109;-79
2023/05/26 09:20:48;;;;;;;8.43;6.18;;;;;;;23.66;37.23;98026.22;4869297;28;20033;-79
2023/05/26 09:23:15;;;;;;;7.63;5.95;;;;;;;23.70;38.40;98021.88;4866487;28;20053;-79
2023/05/26 09:25:41;;;;;;;8.75;6.20;;;;;;;23.28;38.45;98025.94;4870920;28;20031;-78
2023/05/26 09:28:12;;;;;;;9.32;6.15;;;;;;;23.14;37.56;98031.38;4865871;28;20071;-79
2023/05/26 09:30:45;;;;;;;9.40;5.97;;;;;;;23.58;37.40;98020.88;4839095;28;20546;-78
2023/05/26 09:33:12;;;;;;;8.10;5.43;;;;;;;23.01;37.77;98025.00;4891051;28;20092;-79
2023/05/26 09:35:42;;;;;;;9.13;5.57;;;;;;;23.41;37.74;98022.41;4850253;29;20035;-79
2023/05/26 09:38:09;;;;;;;8.25;5.10;;;;;;;23.71;38.06;98017.31;4847541;28;20039;-78
2023/05/26 09:40:34;;;;;;;7.88;4.80;;;;;;;23.48;37.66;98032.59;4874878;28;20039;-79
2023/05/26 09:43:01;;;;;;;8.73;5.30;;;;;;;23.56;36.68;98026.50;4872418;28;20042;-78
2023/05/26 09:45:36;;;;;;;9.35;7.07;;;;;;;24.01;37.36;98018.34;4841526;29;20054;-78
2023/05/26 09:48:03;;;;;;;11.00;6.97;;;;;;;23.71;37.39;98015.44;4843760;28;20178;-79
2023/05/26 09:50:34;;;;;;;8.25;6.03;;;;;;;24.13;36.78;98020.41;4873956;29;20031;-79
2023/05/26 09:53:04;;;;;;;8.02;6.18;;;;;;;23.85;36.44;98025.97;4861842;28;20027;-77
2023/05/26 09:55:30;;;;;;;7.95;5.95;;;;;;;23.98;36.88;98026.19;4872567;28;20035;-79
2023/05/26 09:58:07;;;;;;;6.90;5.50;;;;;;;24.61;36.11;98026.69;4891954;28;20034;-79
2023/05/26 10:00:51;;;;;;;6.10;4.97;;;;;;;25.20;35.42;98029.47;4881965;28;20039;-79
2023/05/26 10:03:16;;;;;;;9.15;6.10;;;;;;;24.67;36.00;98023.50;4878797;28;20027;-78
2023/05/26 10:05:45;;;;;;;8.05;5.40;;;;;;;24.84;36.81;98029.91;4855471;29;20043;-79
2023/05/26 10:08:12;;;;;;;8.27;6.18;;;;;;;24.84;34.97;98021.91;4853063;28;20038;-79
2023/05/26 10:10:38;;;;;;;8.40;5.80;;;;;;;24.79;34.23;98033.50;4859906;29;20031;-79
2023/05/26 10:13:06;;;;;;;7.00;5.72;;;;;;;24.49;36.00;98020.06;4863653;28;20033;-78
2023/05/26 10:15:32;;;;;;;8.32;5.10;;;;;;;24.59;35.23;98028.84;4862769;28;20034;-79
2023/05/26 10:18:00;;;;;;;7.78;5.70;;;;;;;24.54;35.07;98027.16;4870557;29;20045;-78
2023/05/26 10:20:26;;;;;;;7.07;5.82;;;;;;;24.61;34.86;98018.69;4875685;28;20039;-81
2023/05/26 10:23:14;;;;;;;6.95;5.15;;;;;;;25.35;34.89;98019.44;4862117;29;20808;-79
2023/05/26 10:25:45;;;;;;;6.72;5.50;;;;;;;25.37;34.83;98015.31;4866185;29;20046;-79
2023/05/26 10:28:19;;;;;;;8.07;5.18;;;;;;;24.94;33.16;98018.13;4875754;28;20042;-79
2023/05/26 10:30:45;;;;;;;7.10;5.30;;;;;;;25.31;33.37;98015.81;4882654;28;20111;-79
2023/05/26 10:33:12;;;;;;;6.35;5.57;;;;;;;25.66;33.50;98015.66;4877956;28;20284;-78
2023/05/26 10:35:37;;;;;;;9.52;5.40;;;;;;;25.99;33.33;98013.13;4865877;29;20035;-79
2023/05/26 10:38:03;;;;;;;7.22;5.32;;;;;;;26.21;32.79;98014.69;4873729;28;20354;-78
2023/05/26 10:40:52;;;;;;;9.18;5.30;;;;;;;26.48;32.86;98012.56;4878320;28;20038;-78
2023/05/26 10:43:24;;;;;;;8.50;4.95;;;;;;;26.43;33.46;98016.22;4892791;28;20092;-78
2023/05/26 10:45:57;;;;;;;8.60;5.10;;;;;;;26.34;31.82;98015.53;4870062;28;20045;-80
2023/05/26 10:48:40;;;;;;;7.85;6.07;;;;;;;25.33;32.99;98025.06;4861317;28;20041;-78
2023/05/26 10:51:07;;;;;;;13.35;5.88;;;;;;;25.74;34.08;98015.63;4877144;28;20137;-78
2023/05/26 10:53:43;;;;;;;8.45;5.32;;;;;;;26.29;33.03;98010.38;4877710;28;20023;-79
2023/05/26 10:56:12;;;;;;;6.85;5.13;;;;;;;26.43;32.43;98010.09;4867771;28;20125;-79
2023/05/26 10:58:42;;;;;;;8.70;5.65;;;;;;;25.96;33.03;98009.22;4865721;28;20118;-79
2023/05/26 11:01:35;;;;;;;7.22;4.88;;;;;;;26.57;32.23;98009.81;4859737;28;20030;-79
2023/05/26 11:04:08;;;;;;;10.75;5.90;;;;;;;25.63;32.40;98016.31;4877356;28;20061;-77
2023/05/26 11:06:36;;;;;;;7.78;5.28;;;;;;;25.39;33.38;98013.13;4859627;28;20062;-78
2023/05/26 11:09:09;;;;;;;9.07;5.10;;;;;;;25.52;32.26;98003.34;4860840;29;20081;-79
2023/05/26 11:11:39;;;;;;;6.70;5.75;;;;;;;25.21;33.47;98007.06;4860601;28;20034;-77
2023/05/26 11:14:12;;;;;;;8.02;4.70;;;;;;;26.01;32.76;98002.88;4846534;28;20030;-80
2023/05/26 11:16:42;;;;;;;7.07;4.80;;;;;;;26.00;33.64;98009.34;4861858;28;20109;-80
2023/05/26 11:19:09;;;;;;;7.07;4.85;;;;;;;25.64;32.80;98015.22;4862398;28;20035;-80
2023/05/26 11:21:35;;;;;;;5.53;4.82;;;;;;;25.12;33.36;98019.66;4864453;28;20034;-78
2023/05/26 11:24:05;;;;;;;8.50;5.40;;;;;;;25.06;33.78;98020.91;4861102;28;20035;-79
2023/05/26 11:26:32;;;;;;;7.50;4.88;;;;;;;25.15;34.18;98016.31;4886715;28;20027;-79
2023/05/26 11:29:00;;;;;;;8.00;5.60;;;;;;;25.13;33.97;98015.09;4858584;29;20038;-79